createdAt,value
2023-04-11T00:00:56.548Z,13.00
2023-04-11T00:02:30.623Z,13.00
2023-04-11T00:04:02.550Z,13.00
2023-04-11T00:05:34.272Z,13.00
2023-04-11T00:07:07.637Z,13.00
2023-04-11T00:08:39.258Z,13.00
2023-04-11T00:10:11.075Z,13.00
2023-04-11T00:11:43.266Z,13.00
2023-04-11T00:13:14.903Z,13.00
2023-04-11T00:14:48.888Z,13.00
2023-04-11T00:16:20.661Z,13.00
2023-04-11T00:17:53.675Z,13.00
2023-04-11T00:19:25.401Z,12.90
2023-04-11T00:20:57.053Z,12.90
2023-04-11T00:22:28.941Z,12.90
2023-04-11T00:24:00.790Z,12.90
2023-04-11T00:25:32.977Z,12.90
2023-04-11T00:27:04.815Z,12.90
2023-04-11T00:28:36.474Z,12.90
2023-04-11T00:30:08.460Z,12.90
2023-04-11T00:31:40.353Z,12.90
2023-04-11T00:33:12.029Z,12.90
2023-04-11T00:34:43.717Z,12.90
2023-04-11T00:36:16.191Z,12.80
2023-04-11T00:37:49.348Z,12.80
2023-04-11T00:39:22.600Z,12.80
2023-04-11T00:40:54.306Z,12.80
2023-04-11T00:42:26.056Z,12.80
2023-04-11T00:43:57.826Z,12.80
2023-04-11T00:45:30.342Z,12.80
2023-04-11T00:47:05.806Z,12.90
2023-04-11T00:48:37.702Z,12.80
2023-04-11T00:50:09.794Z,12.80
2023-04-11T00:51:41.510Z,12.80
2023-04-11T00:53:13.480Z,12.80
2023-04-11T00:54:45.273Z,12.80
2023-04-11T00:56:17.636Z,12.80
2023-04-11T00:57:49.769Z,12.70
2023-04-11T00:59:22.248Z,12.70
2023-04-11T01:00:54.452Z,12.70
2023-04-11T01:02:26.911Z,12.70
2023-04-11T01:04:00.911Z,12.70
2023-04-11T01:05:33.991Z,12.70
2023-04-11T01:07:08.118Z,12.70
2023-04-11T01:08:42.516Z,12.70
2023-04-11T01:10:15.224Z,12.80
2023-04-11T01:11:49.378Z,12.70
2023-04-11T01:13:21.264Z,12.70
2023-04-11T01:14:53.054Z,12.70
2023-04-11T01:16:24.859Z,12.60
2023-04-11T01:17:57.852Z,12.70
2023-04-11T01:19:30.343Z,12.70
2023-04-11T01:21:02.520Z,12.60
2023-04-11T01:22:34.843Z,12.60
2023-04-11T01:24:08.676Z,12.60
2023-04-11T01:25:40.539Z,12.60
2023-04-11T01:27:12.406Z,12.60
2023-04-11T01:28:44.120Z,12.60
2023-04-11T01:30:16.633Z,12.60
2023-04-11T01:31:49.110Z,12.60
2023-04-11T01:33:21.178Z,12.60
2023-04-11T01:34:56.677Z,12.60
2023-04-11T01:36:29.487Z,12.60
2023-04-11T01:38:02.061Z,12.60
2023-04-11T01:39:33.811Z,12.60
2023-04-11T01:41:07.518Z,12.60
2023-04-11T01:42:39.475Z,12.60
2023-04-11T01:44:11.836Z,12.50
2023-04-11T01:45:43.811Z,12.50
2023-04-11T01:47:15.551Z,12.50
2023-04-11T01:48:50.508Z,12.50
2023-04-11T01:50:23.534Z,12.50
2023-04-11T01:51:55.861Z,12.50
2023-04-11T01:53:27.850Z,12.50
2023-04-11T01:55:02.385Z,12.50
2023-04-11T01:56:34.217Z,12.50
2023-04-11T01:58:05.978Z,12.50
2023-04-11T01:59:37.910Z,12.50
2023-04-11T02:01:09.686Z,12.50
2023-04-11T02:02:41.637Z,12.50
2023-04-11T02:04:14.715Z,12.50
2023-04-11T02:05:46.777Z,12.50
2023-04-11T02:07:18.434Z,12.50
2023-04-11T02:08:52.831Z,12.50
2023-04-11T02:10:26.014Z,12.50
2023-04-11T02:11:57.732Z,12.50
2023-04-11T02:13:29.456Z,12.50
2023-04-11T02:15:01.112Z,12.50
2023-04-11T02:16:33.576Z,12.50
2023-04-11T02:18:05.578Z,12.50
2023-04-11T02:19:41.373Z,12.50
2023-04-11T02:21:13.428Z,12.50
2023-04-11T02:22:45.207Z,12.40
2023-04-11T02:24:16.884Z,12.50
2023-04-11T02:25:48.530Z,12.40
2023-04-11T02:27:21.106Z,12.40
2023-04-11T02:28:52.924Z,12.40
2023-04-11T02:30:26.730Z,12.40
2023-04-11T02:31:58.565Z,12.40
2023-04-11T02:33:30.626Z,12.30
2023-04-11T02:35:02.373Z,12.30
2023-04-11T02:36:34.671Z,12.40
2023-04-11T02:38:06.522Z,12.30
2023-04-11T02:39:38.264Z,12.30
2023-04-11T02:41:10.132Z,12.30
2023-04-11T02:42:43.214Z,12.30
2023-04-11T02:44:15.393Z,12.30
2023-04-11T02:45:48.393Z,12.30
2023-04-11T02:47:20.650Z,12.30
2023-04-11T02:48:52.390Z,12.30
2023-04-11T02:50:26.958Z,12.30
2023-04-11T02:51:59.113Z,12.30
2023-04-11T02:53:31.035Z,12.30
2023-04-11T02:55:03.701Z,12.30
2023-04-11T02:56:38.721Z,12.30
2023-04-11T02:58:10.584Z,12.30
2023-04-11T02:59:42.543Z,12.30
2023-04-11T03:01:17.014Z,12.30
2023-04-11T03:02:49.321Z,12.20
2023-04-11T03:04:25.505Z,12.30
2023-04-11T03:06:06.811Z,12.20
2023-04-11T03:07:40.433Z,12.20
2023-04-11T03:09:13.881Z,12.20
2023-04-11T03:10:46.236Z,12.20
2023-04-11T03:12:19.989Z,12.20
2023-04-11T03:13:58.518Z,12.20
2023-04-11T03:15:32.144Z,12.20
2023-04-11T03:17:07.739Z,12.20
2023-04-11T03:18:39.679Z,12.20
2023-04-11T03:20:19.646Z,12.20
2023-04-11T03:21:53.955Z,12.20
2023-04-11T03:23:25.947Z,12.20
2023-04-11T03:24:57.858Z,12.20
2023-04-11T03:26:29.806Z,12.20
2023-04-11T03:28:06.306Z,12.20
2023-04-11T03:29:38.064Z,12.20
2023-04-11T03:31:17.660Z,12.20
2023-04-11T03:32:49.746Z,12.10
2023-04-11T03:34:23.355Z,12.10
2023-04-11T03:35:55.907Z,12.10
2023-04-11T03:37:28.007Z,12.10
2023-04-11T03:38:59.699Z,12.10
2023-04-11T03:40:31.376Z,12.10
2023-04-11T03:42:13.462Z,12.10
2023-04-11T03:43:45.835Z,12.10
2023-04-11T03:45:18.245Z,12.10
2023-04-11T03:46:50.869Z,12.10
2023-04-11T03:48:26.284Z,12.10
2023-04-11T03:50:03.830Z,12.00
2023-04-11T03:51:42.208Z,12.00
2023-04-11T03:53:13.930Z,12.00
2023-04-11T03:54:48.819Z,12.10
2023-04-11T03:56:21.988Z,12.00
2023-04-11T03:57:54.018Z,12.00
2023-04-11T03:59:26.044Z,12.00
2023-04-11T04:01:18.093Z,12.00
2023-04-11T04:02:51.099Z,12.00
2023-04-11T04:04:23.051Z,12.00
2023-04-11T04:06:04.425Z,12.00
2023-04-11T04:07:36.504Z,12.00
2023-04-11T04:09:15.697Z,12.00
2023-04-11T04:10:57.468Z,12.00
2023-04-11T04:12:29.201Z,12.00
2023-04-11T04:14:17.676Z,11.90
2023-04-11T04:15:51.472Z,11.90
2023-04-11T04:17:27.815Z,11.90
2023-04-11T04:18:59.725Z,11.90
2023-04-11T04:20:31.617Z,11.90
2023-04-11T04:22:05.818Z,11.90
2023-04-11T04:23:47.461Z,11.90
2023-04-11T04:25:34.783Z,11.90
2023-04-11T04:27:09.629Z,11.90
2023-04-11T04:28:48.252Z,11.90
2023-04-11T04:30:28.858Z,11.90
2023-04-11T04:32:10.732Z,11.90
2023-04-11T04:33:49.373Z,11.90
2023-04-11T04:35:26.722Z,11.90
2023-04-11T04:36:59.436Z,11.90
2023-04-11T04:38:42.060Z,11.90
2023-04-11T04:40:15.911Z,11.90
2023-04-11T04:42:01.390Z,11.90
2023-04-11T04:43:41.813Z,11.80
2023-04-11T04:45:31.239Z,11.80
2023-04-11T04:47:04.242Z,11.80
2023-04-11T04:48:36.718Z,11.80
2023-04-11T04:50:08.792Z,11.80
2023-04-11T04:51:40.731Z,11.90
2023-04-11T04:53:12.814Z,11.80
2023-04-11T04:54:50.710Z,11.80
2023-04-11T04:56:22.696Z,11.80
2023-04-11T04:57:54.608Z,11.80
2023-04-11T04:59:27.051Z,11.80
2023-04-11T05:01:05.951Z,11.80
2023-04-11T05:02:40.502Z,11.80
2023-04-11T05:04:13.081Z,11.80
2023-04-11T05:05:52.070Z,11.80
2023-04-11T05:07:26.375Z,11.80
2023-04-11T05:09:00.316Z,11.80
2023-04-11T05:10:32.038Z,11.80
2023-04-11T05:12:05.546Z,11.70
2023-04-11T05:13:40.685Z,11.80
2023-04-11T05:15:12.578Z,11.70
2023-04-11T05:16:46.232Z,11.70
2023-04-11T05:18:17.968Z,11.70
2023-04-11T05:19:50.223Z,11.70
2023-04-11T05:21:22.286Z,11.70
2023-04-11T05:22:56.647Z,11.70
2023-04-11T05:24:28.371Z,11.70
2023-04-11T05:26:02.413Z,11.70
2023-04-11T05:27:35.884Z,11.70
2023-04-11T05:29:07.918Z,11.70
2023-04-11T05:30:39.714Z,11.70
2023-04-11T05:32:11.533Z,11.70
2023-04-11T05:33:43.255Z,11.70
2023-04-11T05:35:15.821Z,11.70
2023-04-11T05:36:51.864Z,11.70
2023-04-11T05:38:23.703Z,11.70
2023-04-11T05:39:56.296Z,11.70
2023-04-11T05:41:28.022Z,11.70
2023-04-11T05:42:59.765Z,11.70
2023-04-11T05:44:31.449Z,11.70
2023-04-11T05:46:04.115Z,11.70
2023-04-11T05:47:36.158Z,11.70
2023-04-11T05:49:07.901Z,11.70
2023-04-11T05:50:39.946Z,11.70
2023-04-11T05:52:11.682Z,11.70
2023-04-11T05:53:43.893Z,11.70
2023-04-11T05:55:15.702Z,11.60
2023-04-11T05:56:47.363Z,11.60
2023-04-11T05:58:19.015Z,11.60
2023-04-11T05:59:52.803Z,11.60
2023-04-11T06:01:26.078Z,11.60
2023-04-11T06:02:58.700Z,11.60
2023-04-11T06:04:30.676Z,11.60
2023-04-11T06:06:02.481Z,11.60
2023-04-11T06:07:35.760Z,11.60
2023-04-11T06:09:09.008Z,11.60
2023-04-11T06:10:40.647Z,11.60
2023-04-11T06:12:12.364Z,11.60
2023-04-11T06:13:44.048Z,11.60
2023-04-11T06:15:15.663Z,11.50
2023-04-11T06:16:47.464Z,11.60
2023-04-11T06:18:19.136Z,11.60
2023-04-11T06:19:50.800Z,11.60
2023-04-11T06:21:22.533Z,11.60
2023-04-11T06:22:54.148Z,11.60
2023-04-11T06:24:36.502Z,11.60
2023-04-11T06:26:09.245Z,11.60
2023-04-11T06:27:42.658Z,11.60
2023-04-11T06:29:14.409Z,11.60
2023-04-11T06:30:46.094Z,11.60
2023-04-11T06:32:17.814Z,11.60
2023-04-11T06:33:49.526Z,11.60
2023-04-11T06:35:24.727Z,11.60
2023-04-11T06:36:56.452Z,11.60
2023-04-11T06:38:28.113Z,11.60
2023-04-11T06:40:00.630Z,11.60
2023-04-11T06:41:32.289Z,11.60
2023-04-11T06:43:03.941Z,11.60
2023-04-11T06:44:36.086Z,11.60
2023-04-11T06:46:08.352Z,11.60
2023-04-11T06:47:40.642Z,11.60
2023-04-11T06:49:12.381Z,11.60
2023-04-11T06:50:45.602Z,11.60
2023-04-11T06:52:17.321Z,11.60
2023-04-11T06:53:48.948Z,11.70
2023-04-11T06:55:20.998Z,11.70
2023-04-11T06:56:52.650Z,11.70
2023-04-11T06:58:24.401Z,11.70
2023-04-11T06:59:56.114Z,11.70
2023-04-11T07:01:35.384Z,11.70
2023-04-11T07:03:08.683Z,11.80
2023-04-11T07:04:41.043Z,11.80
2023-04-11T07:06:13.214Z,11.80
2023-04-11T07:07:44.934Z,11.80
2023-04-11T07:09:16.646Z,11.80
2023-04-11T07:10:48.329Z,11.80
2023-04-11T07:12:20.300Z,11.80
2023-04-11T07:13:51.993Z,11.90
2023-04-11T07:15:23.840Z,11.90
2023-04-11T07:16:55.661Z,11.90
2023-04-11T07:18:27.523Z,11.90
2023-04-11T07:19:59.167Z,11.90
2023-04-11T07:21:32.216Z,11.90
2023-04-11T07:23:04.287Z,11.90
2023-04-11T07:24:36.184Z,12.00
2023-04-11T07:26:09.078Z,12.00
2023-04-11T07:27:43.531Z,12.00
2023-04-11T07:29:15.278Z,12.00
2023-04-11T07:30:47.386Z,12.00
2023-04-11T07:32:19.140Z,12.00
2023-04-11T07:33:51.255Z,12.00
2023-04-11T07:35:23.021Z,12.10
2023-04-11T07:36:57.710Z,12.00
2023-04-11T07:38:29.547Z,12.10
2023-04-11T07:40:01.655Z,12.10
2023-04-11T07:41:33.281Z,12.10
2023-04-11T07:43:04.925Z,12.10
2023-04-11T07:44:36.739Z,12.10
2023-04-11T07:46:08.696Z,12.10
2023-04-11T07:47:40.659Z,12.10
2023-04-11T07:49:12.358Z,12.10
2023-04-11T07:50:44.179Z,12.10
2023-04-11T07:52:15.909Z,12.20
2023-04-11T07:53:47.586Z,12.20
2023-04-11T07:55:19.229Z,12.20
2023-04-11T07:56:51.265Z,12.20
2023-04-11T07:58:22.927Z,12.20
2023-04-11T07:59:54.607Z,12.20
2023-04-11T08:01:26.697Z,12.20
2023-04-11T08:03:04.422Z,12.20
2023-04-11T08:04:37.429Z,12.20
2023-04-11T08:06:09.669Z,12.30
2023-04-11T08:07:41.824Z,12.30
2023-04-11T08:09:13.466Z,12.20
2023-04-11T08:10:45.271Z,12.30
2023-04-11T08:12:16.966Z,12.20
2023-04-11T08:13:48.656Z,12.30
2023-04-11T08:15:20.418Z,12.30
2023-04-11T08:16:53.230Z,12.30
2023-04-11T08:18:25.431Z,12.30
2023-04-11T08:19:57.791Z,12.30
2023-04-11T08:21:29.485Z,12.30
2023-04-11T08:23:06.090Z,12.30
2023-04-11T08:24:37.790Z,12.30
2023-04-11T08:26:11.734Z,12.30
2023-04-11T08:27:43.422Z,12.30
2023-04-11T08:29:15.248Z,12.30
2023-04-11T08:30:46.920Z,12.30
2023-04-11T08:32:18.742Z,12.30
2023-04-11T08:33:50.678Z,12.30
2023-04-11T08:35:22.501Z,12.40
2023-04-11T08:36:54.137Z,12.40
2023-04-11T08:38:25.992Z,12.40
2023-04-11T08:39:57.785Z,12.40
2023-04-11T08:41:32.615Z,12.40
2023-04-11T08:43:09.952Z,12.40
2023-04-11T08:44:41.648Z,12.40
2023-04-11T08:46:13.789Z,12.40
2023-04-11T08:47:46.014Z,12.40
2023-04-11T08:49:17.909Z,12.40
2023-04-11T08:50:49.570Z,12.40
2023-04-11T08:52:21.432Z,12.40
2023-04-11T08:53:54.467Z,12.40
2023-04-11T08:55:27.001Z,12.40
2023-04-11T08:56:58.652Z,12.40
2023-04-11T08:58:30.345Z,12.40
2023-04-11T09:00:18.728Z,12.40
2023-04-11T09:01:51.276Z,12.40
2023-04-11T09:03:23.205Z,12.40
2023-04-11T09:04:57.614Z,12.40
2023-04-11T09:06:32.628Z,12.40
2023-04-11T09:08:10.249Z,12.40
2023-04-11T09:09:43.255Z,12.40
2023-04-11T09:11:14.925Z,12.40
2023-04-11T09:12:46.873Z,12.40
2023-04-11T09:14:18.970Z,12.50
2023-04-11T09:16:10.027Z,12.50
2023-04-11T09:17:42.350Z,12.50
2023-04-11T09:19:27.964Z,12.50
2023-04-11T09:21:01.282Z,12.50
2023-04-11T09:22:36.447Z,12.60
2023-04-11T09:24:15.537Z,12.60
2023-04-11T09:25:47.676Z,12.60
2023-04-11T09:27:24.188Z,12.60
2023-04-11T09:28:56.139Z,12.60
2023-04-11T09:30:28.022Z,12.60
2023-04-11T09:31:59.659Z,12.60
2023-04-11T09:33:32.078Z,12.60
2023-04-11T09:35:24.018Z,12.60
2023-04-11T09:36:56.467Z,12.50
2023-04-11T09:38:30.608Z,12.50
2023-04-11T09:40:03.927Z,12.50
2023-04-11T09:41:36.886Z,12.50
2023-04-11T09:43:08.585Z,12.50
2023-04-11T09:44:40.321Z,12.50
2023-04-11T09:46:18.223Z,12.50
2023-04-11T09:47:52.933Z,12.50
2023-04-11T09:49:24.801Z,12.60
2023-04-11T09:50:58.811Z,12.60
2023-04-11T09:52:32.191Z,12.60
2023-04-11T09:54:04.706Z,12.60
2023-04-11T09:55:39.548Z,12.60
2023-04-11T09:57:13.529Z,12.60
2023-04-11T09:58:47.282Z,12.70
2023-04-11T10:00:20.343Z,12.70
2023-04-11T10:01:53.062Z,12.70
2023-04-11T10:03:26.449Z,12.70
2023-04-11T10:05:00.168Z,12.70
2023-04-11T10:06:40.654Z,12.70
2023-04-11T10:08:33.376Z,12.70
2023-04-11T10:10:05.531Z,12.80
2023-04-11T10:11:40.150Z,12.80
2023-04-11T10:13:41.536Z,12.80
2023-04-11T10:15:14.185Z,12.80
2023-04-11T10:17:15.816Z,12.80
2023-04-11T10:18:55.999Z,12.80
2023-04-11T10:20:50.241Z,12.80
2023-04-11T10:22:40.614Z,12.80
2023-04-11T10:24:21.142Z,12.80
2023-04-11T10:25:55.558Z,12.80
2023-04-11T10:27:50.318Z,12.80
2023-04-11T10:29:33.138Z,12.80
2023-04-11T10:31:10.131Z,12.90
2023-04-11T10:33:15.997Z,12.90
2023-04-11T10:35:16.256Z,12.90
2023-04-11T10:37:08.781Z,12.90
2023-04-11T10:38:43.358Z,12.90
2023-04-11T10:40:15.412Z,12.90
2023-04-11T10:41:47.154Z,12.90
2023-04-11T10:43:21.914Z,12.90
2023-04-11T10:45:24.198Z,12.90
2023-04-11T10:46:56.090Z,12.90
2023-04-11T10:48:27.833Z,12.90
2023-04-11T10:50:00.473Z,12.90
2023-04-11T10:51:33.715Z,12.90
2023-04-11T10:53:07.093Z,12.90
2023-04-11T10:54:38.789Z,12.90
2023-04-11T10:56:10.770Z,12.90
2023-04-11T10:58:11.369Z,12.90
2023-04-11T10:59:43.025Z,12.90
2023-04-11T11:01:25.879Z,13.00
2023-04-11T11:03:13.784Z,13.00
2023-04-11T11:04:47.163Z,13.00
2023-04-11T11:06:21.743Z,13.00
2023-04-11T11:07:53.952Z,13.00
2023-04-11T11:09:28.293Z,13.00
2023-04-11T11:11:06.138Z,13.00
2023-04-11T11:12:37.824Z,13.00
2023-04-11T11:14:09.518Z,13.00
2023-04-11T11:15:48.491Z,13.00
2023-04-11T11:17:20.574Z,13.00
2023-04-11T11:18:54.240Z,13.00
2023-04-11T11:20:25.909Z,13.00
2023-04-11T11:22:03.259Z,13.00
2023-04-11T11:23:36.383Z,12.90
2023-04-11T11:25:08.904Z,12.90
2023-04-11T11:26:44.267Z,13.00
2023-04-11T11:28:15.956Z,13.00
2023-04-11T11:29:47.616Z,13.00
2023-04-11T11:31:19.483Z,13.00
2023-04-11T11:32:51.263Z,13.00
2023-04-11T11:34:33.380Z,13.00
2023-04-11T11:36:06.550Z,13.00
2023-04-11T11:37:38.576Z,13.00
2023-04-11T11:39:11.527Z,13.00
2023-04-11T11:40:43.332Z,13.00
2023-04-11T11:42:15.583Z,13.00
2023-04-11T11:43:47.260Z,13.10
2023-04-11T11:45:22.584Z,13.00
2023-04-11T11:47:17.874Z,13.00
2023-04-11T11:49:05.028Z,13.00
2023-04-11T11:50:36.862Z,13.00
2023-04-11T11:52:08.528Z,13.00
2023-04-11T11:53:40.234Z,13.00
2023-04-11T11:55:17.783Z,13.00
2023-04-11T11:56:52.444Z,13.00
2023-04-11T11:58:28.182Z,13.00
2023-04-11T12:00:10.379Z,13.00
2023-04-11T12:01:45.772Z,13.00
2023-04-11T12:03:25.056Z,13.00
2023-04-11T12:05:01.495Z,13.00
2023-04-11T12:06:33.726Z,13.00
2023-04-11T12:08:07.401Z,13.00
2023-04-11T12:09:39.899Z,12.90
2023-04-11T12:11:15.516Z,13.00
2023-04-11T12:12:53.668Z,13.00
2023-04-11T12:14:25.835Z,13.00
2023-04-11T12:16:01.181Z,13.00
2023-04-11T12:17:37.800Z,13.00
2023-04-11T12:19:10.109Z,13.00
2023-04-11T12:20:42.023Z,13.00
2023-04-11T12:22:13.675Z,13.00
2023-04-11T12:23:45.729Z,13.00
2023-04-11T12:25:17.518Z,13.00
2023-04-11T12:27:05.717Z,13.00
2023-04-11T12:28:38.349Z,13.00
2023-04-11T12:30:11.347Z,13.00
2023-04-11T12:31:45.305Z,13.00
2023-04-11T12:33:17.724Z,13.00
2023-04-11T12:34:49.606Z,13.00
2023-04-11T12:36:21.940Z,13.00
2023-04-11T12:37:54.097Z,13.00
2023-04-11T12:39:28.279Z,13.00
2023-04-11T12:41:29.486Z,13.00
2023-04-11T12:42:56.258Z,13.10
2023-04-11T12:44:28.818Z,13.10
2023-04-11T12:46:00.681Z,13.10
2023-04-11T12:47:32.438Z,13.10
2023-04-11T12:49:04.145Z,13.10
2023-04-11T12:50:35.872Z,13.10
2023-04-11T12:52:08.493Z,13.10
2023-04-11T12:53:40.165Z,13.10
2023-04-11T12:55:13.875Z,13.10
2023-04-11T12:56:45.867Z,13.20
2023-04-11T12:58:18.496Z,13.20
2023-04-11T12:59:51.097Z,13.20
2023-04-11T13:01:23.462Z,13.20
2023-04-11T13:02:56.354Z,13.20
2023-04-11T13:04:28.342Z,13.30
2023-04-11T13:06:00.255Z,13.30
2023-04-11T13:07:35.561Z,13.30
2023-04-11T13:09:07.846Z,13.30
2023-04-11T13:10:39.587Z,13.30
2023-04-11T13:12:11.749Z,13.30
2023-04-11T13:13:43.418Z,13.30
2023-04-11T13:15:16.991Z,13.30
2023-04-11T13:16:49.007Z,13.30
2023-04-11T13:18:21.057Z,13.30
2023-04-11T13:19:52.784Z,13.30
2023-04-11T13:21:26.380Z,13.30
2023-04-11T13:22:58.034Z,13.30
2023-04-11T13:24:31.482Z,13.20
2023-04-11T13:26:03.239Z,13.20
2023-04-11T13:27:35.357Z,13.30
2023-04-11T13:29:07.829Z,13.20
2023-04-11T13:30:40.942Z,13.20
2023-04-11T13:32:12.716Z,13.20
2023-04-11T13:33:45.384Z,13.20
2023-04-11T13:35:17.079Z,13.20
2023-04-11T13:36:48.948Z,13.20
2023-04-11T13:38:21.296Z,13.20
2023-04-11T13:39:52.967Z,13.20
2023-04-11T13:41:25.290Z,13.20
2023-04-11T13:42:56.988Z,13.20
2023-04-11T13:44:28.703Z,13.20
2023-04-11T13:46:00.727Z,13.20
2023-04-11T13:47:35.398Z,13.20
2023-04-11T13:49:08.477Z,13.20
2023-04-11T13:50:40.506Z,13.20
2023-04-11T13:52:12.190Z,13.20
2023-04-11T13:53:43.906Z,13.20
2023-04-11T13:55:15.777Z,13.20
2023-04-11T13:56:47.541Z,13.20
2023-04-11T13:58:19.263Z,13.20
2023-04-11T13:59:50.993Z,13.20
2023-04-11T14:01:22.818Z,13.20
2023-04-11T14:02:54.750Z,13.20
2023-04-11T14:04:27.443Z,13.20
2023-04-11T14:06:03.382Z,13.30
2023-04-11T14:07:35.156Z,13.30
2023-04-11T14:09:07.594Z,13.30
2023-04-11T14:10:39.363Z,13.30
2023-04-11T14:12:11.207Z,13.30
2023-04-11T14:13:42.914Z,13.30
2023-04-11T14:15:14.564Z,13.30
2023-04-11T14:16:46.272Z,13.40
2023-04-11T14:18:18.019Z,13.30
2023-04-11T14:19:49.711Z,13.30
2023-04-11T14:21:22.588Z,13.30
2023-04-11T14:22:56.562Z,13.30
2023-04-11T14:24:28.939Z,13.30
2023-04-11T14:26:00.633Z,13.40
2023-04-11T14:27:32.315Z,13.40
2023-04-11T14:29:04.617Z,13.30
2023-04-11T14:30:36.448Z,13.30
2023-04-11T14:32:08.477Z,13.40
2023-04-11T14:33:40.196Z,13.30
2023-04-11T14:35:11.886Z,13.40
2023-04-11T14:36:43.692Z,13.40
2023-04-11T14:38:15.862Z,13.40
2023-04-11T14:39:48.165Z,13.40
2023-04-11T14:41:19.817Z,13.40
2023-04-11T14:42:51.542Z,13.40
2023-04-11T14:44:23.317Z,13.40
2023-04-11T14:45:57.218Z,13.40
2023-04-11T14:47:29.045Z,13.50
2023-04-11T14:49:01.795Z,13.40
2023-04-11T14:50:33.788Z,13.40
2023-04-11T14:52:06.023Z,13.40
2023-04-11T14:53:37.671Z,13.40
2023-04-11T14:55:09.587Z,13.40
2023-04-11T14:56:41.347Z,13.40
2023-04-11T14:58:13.077Z,13.40
2023-04-11T14:59:44.804Z,13.50
2023-04-11T15:01:17.608Z,13.40
2023-04-11T15:02:54.722Z,13.50
2023-04-11T15:04:26.698Z,13.50
2023-04-11T15:05:58.417Z,13.50
2023-04-11T15:07:30.094Z,13.50
2023-04-11T15:09:02.371Z,13.50
2023-04-11T15:10:34.013Z,13.50
2023-04-11T15:12:05.940Z,13.50
2023-04-11T15:13:37.598Z,13.50
2023-04-11T15:15:10.350Z,13.50
2023-04-11T15:16:42.022Z,13.50
2023-04-11T15:18:21.356Z,13.50
2023-04-11T15:19:55.891Z,13.50
2023-04-11T15:21:28.022Z,13.50
2023-04-11T15:22:59.653Z,13.50
2023-04-11T15:24:31.346Z,13.50
2023-04-11T15:26:03.833Z,13.50
2023-04-11T15:27:36.348Z,13.50
2023-04-11T15:29:14.653Z,13.40
2023-04-11T15:30:48.501Z,13.50
2023-04-11T15:32:20.230Z,13.50
2023-04-11T15:33:57.156Z,13.40
2023-04-11T15:35:28.970Z,13.40
2023-04-11T15:37:00.703Z,13.40
2023-04-11T15:38:32.433Z,13.40
2023-04-11T15:40:07.090Z,13.40
2023-04-11T15:41:38.773Z,13.40
2023-04-11T15:43:10.970Z,13.40
2023-04-11T15:44:43.471Z,13.40
2023-04-11T15:46:16.070Z,13.40
2023-04-11T15:47:47.790Z,13.40
2023-04-11T15:49:19.454Z,13.40
2023-04-11T15:50:51.131Z,13.40
2023-04-11T15:52:22.828Z,13.40
2023-04-11T15:53:54.845Z,13.40
2023-04-11T15:55:26.886Z,13.40
2023-04-11T15:56:58.629Z,13.40
2023-04-11T15:58:33.726Z,13.40
2023-04-11T16:00:09.665Z,13.40
2023-04-11T16:01:41.652Z,13.40
2023-04-11T16:03:13.621Z,13.40
2023-04-11T16:04:47.945Z,13.40
2023-04-11T16:06:20.719Z,13.40
2023-04-11T16:07:52.362Z,13.40
2023-04-11T16:09:24.139Z,13.40
2023-04-11T16:10:55.949Z,13.40
2023-04-11T16:12:27.951Z,13.40
2023-04-11T16:13:59.658Z,13.40
2023-04-11T16:15:32.012Z,13.40
2023-04-11T16:17:04.251Z,13.40
2023-04-11T16:18:36.135Z,13.40
2023-04-11T16:20:12.047Z,13.40
2023-04-11T16:21:44.139Z,13.40
2023-04-11T16:23:15.787Z,13.40
2023-04-11T16:24:47.575Z,13.40
2023-04-11T16:26:19.793Z,13.30
2023-04-11T16:27:51.718Z,13.30
2023-04-11T16:29:24.986Z,13.30
2023-04-11T16:30:58.016Z,13.30
2023-04-11T16:32:30.313Z,13.30
2023-04-11T16:34:02.308Z,13.40
2023-04-11T16:35:34.111Z,13.30
2023-04-11T16:37:06.253Z,13.40
2023-04-11T16:38:37.920Z,13.30
2023-04-11T16:40:12.831Z,13.30
2023-04-11T16:41:44.526Z,13.30
2023-04-11T16:43:16.471Z,13.30
2023-04-11T16:44:48.671Z,13.30
2023-04-11T16:46:20.798Z,13.30
2023-04-11T16:47:52.777Z,13.30
2023-04-11T16:49:24.437Z,13.30
2023-04-11T16:50:56.121Z,13.30
2023-04-11T16:52:28.264Z,13.30
2023-04-11T16:53:59.949Z,13.30
2023-04-11T16:55:31.704Z,13.30
2023-04-11T16:57:03.844Z,13.30
2023-04-11T16:58:35.644Z,13.30
2023-04-11T17:00:10.754Z,13.30
2023-04-11T17:01:43.019Z,13.30
2023-04-11T17:03:17.573Z,13.30
2023-04-11T17:04:49.404Z,13.30
2023-04-11T17:06:21.281Z,13.30
2023-04-11T17:07:52.957Z,13.30
2023-04-11T17:09:24.619Z,13.30
2023-04-11T17:11:06.543Z,13.30
2023-04-11T17:12:38.250Z,13.30
2023-04-11T17:14:09.922Z,13.30
2023-04-11T17:15:42.038Z,13.30
2023-04-11T17:17:13.698Z,13.30
2023-04-11T17:18:45.475Z,13.30
2023-04-11T17:20:17.200Z,13.30
2023-04-11T17:21:48.903Z,13.30
2023-04-11T17:23:28.962Z,13.30
2023-04-11T17:25:07.558Z,13.30
2023-04-11T17:26:39.224Z,13.30
2023-04-11T17:28:10.920Z,13.30
2023-04-11T17:29:42.595Z,13.30
2023-04-11T17:31:17.228Z,13.30
2023-04-11T17:32:49.092Z,13.30
2023-04-11T17:34:20.821Z,13.30
2023-04-11T17:35:52.574Z,13.30
2023-04-11T17:37:24.306Z,13.30
2023-04-11T17:38:56.043Z,13.30
2023-04-11T17:40:28.225Z,13.30
2023-04-11T17:41:59.870Z,13.30
2023-04-11T17:43:31.642Z,13.30
2023-04-11T17:45:16.127Z,13.30
2023-04-11T17:46:49.140Z,13.30
2023-04-11T17:48:22.869Z,13.30
2023-04-11T17:49:56.017Z,13.30
2023-04-11T17:51:29.275Z,13.30
2023-04-11T17:53:01.642Z,13.30
2023-04-11T17:54:33.881Z,13.30
2023-04-11T17:56:06.142Z,13.30
2023-04-11T17:57:38.614Z,13.30
2023-04-11T17:59:11.604Z,13.30
2023-04-11T18:00:54.753Z,13.30
2023-04-11T18:02:29.206Z,13.30
2023-04-11T18:04:02.024Z,13.30
2023-04-11T18:05:35.039Z,13.30
2023-04-11T18:07:07.127Z,13.30
2023-04-11T18:08:50.534Z,13.30
2023-04-11T18:10:23.932Z,13.40
2023-04-11T18:11:56.512Z,13.30
2023-04-11T18:13:28.271Z,13.30
2023-04-11T18:15:00.011Z,13.30
2023-04-11T18:16:31.967Z,13.30
2023-04-11T18:18:07.900Z,13.30
2023-04-11T18:19:39.690Z,13.30
2023-04-11T18:21:11.364Z,13.30
2023-04-11T18:22:44.935Z,13.30
2023-04-11T18:24:16.693Z,13.30
2023-04-11T18:25:48.340Z,13.30
2023-04-11T18:27:20.115Z,13.30
2023-04-11T18:28:51.766Z,13.30
2023-04-11T18:30:23.570Z,13.30
2023-04-11T18:31:56.084Z,13.30
2023-04-11T18:33:27.944Z,13.30
2023-04-11T18:35:03.426Z,13.30
2023-04-11T18:36:35.353Z,13.20
2023-04-11T18:38:07.034Z,13.30
2023-04-11T18:39:38.983Z,13.20
2023-04-11T18:41:10.797Z,13.30
2023-04-11T18:42:48.374Z,13.20
2023-04-11T18:44:20.690Z,13.20
2023-04-11T18:45:52.497Z,13.30
2023-04-11T18:47:24.349Z,13.20
2023-04-11T18:48:56.089Z,13.20
2023-04-11T18:50:30.129Z,13.20
2023-04-11T18:52:01.800Z,13.20
2023-04-11T18:53:34.840Z,13.20
2023-04-11T18:55:12.806Z,13.20
2023-04-11T18:56:47.545Z,13.20
2023-04-11T18:58:23.489Z,13.20
2023-04-11T19:00:00.992Z,13.20
2023-04-11T19:01:34.343Z,13.20
2023-04-11T19:03:06.945Z,13.20
2023-04-11T19:04:42.008Z,13.20
2023-04-11T19:06:14.504Z,13.20
2023-04-11T19:07:47.781Z,13.20
2023-04-11T19:09:21.516Z,13.20
2023-04-11T19:10:56.525Z,13.20
2023-04-11T19:12:32.146Z,13.20
2023-04-11T19:14:06.121Z,13.20
2023-04-11T19:15:42.015Z,13.20
2023-04-11T19:17:13.833Z,13.20
2023-04-11T19:18:49.687Z,13.20
2023-04-11T19:20:26.572Z,13.20
2023-04-11T19:21:58.384Z,13.20
2023-04-11T19:23:30.249Z,13.20
2023-04-11T19:25:02.903Z,13.20
2023-04-11T19:26:36.999Z,13.20
2023-04-11T19:28:08.660Z,13.20
2023-04-11T19:29:40.439Z,13.20
2023-04-11T19:31:12.585Z,13.20
2023-04-11T19:32:47.145Z,13.20
2023-04-11T19:34:18.914Z,13.10
2023-04-11T19:35:50.621Z,13.10
2023-04-11T19:37:23.177Z,13.10
2023-04-11T19:38:57.784Z,13.10
2023-04-11T19:40:29.456Z,13.10
2023-04-11T19:42:02.437Z,13.10
2023-04-11T19:43:34.097Z,13.10
2023-04-11T19:45:11.309Z,13.10
2023-04-11T19:46:43.174Z,13.10
2023-04-11T19:48:16.123Z,13.10
2023-04-11T19:49:47.971Z,13.10
2023-04-11T19:51:21.178Z,13.10
2023-04-11T19:52:58.245Z,13.10
2023-04-11T19:54:32.855Z,13.10
2023-04-11T19:56:07.463Z,13.10
2023-04-11T19:57:43.491Z,13.10
2023-04-11T19:59:16.033Z,13.10
2023-04-11T20:00:48.383Z,13.10
2023-04-11T20:02:21.387Z,13.10
2023-04-11T20:03:53.531Z,13.10
2023-04-11T20:05:25.645Z,13.10
2023-04-11T20:07:00.907Z,13.10